Terminal Aerodrome Forecast
Issued by NWS Mt. Holly, NJ

Home | Current Version | Previous Version | Text Only | Print | Product List | Glossary On
Versions: 1 2 3 4 5 6 7 8 9 10 11 12 13 14 15 16 17 18 19 20 21 22 23 24 25 26
000
FTUS41 KPHI 051030 AAA
TAFILG
TAF AMD
KILG 051030Z 0511/0606 02012KT P6SM OVC014
      TEMPO 0512/0514 6SM -DZ BR BKN009
     FM051400 03012G18KT P6SM OVC015
     FM052000 03010KT P6SM OVC025
     FM060300 04009KT P6SM VCSH OVC011=

USA.gov is the U.S. government's official web portal to all federal, state and local government web resources and services.